Time;durP1;ratioP1;P1;durP2;ratioP2;P2;SDS_P1;SDS_P2;PMS_P1;PMS_P2;Temp;Humidity;BMP_temperature;BMP_pressure;BME280_temperature;BME280_humidity;BME280_pressure;Samples;Min_cycle;Max_cycle;Signal;HPM_P1;HPM_P2
2022/05/30 00:00:24;;;;;;;14.43;13.67;;;7.50;99.90;;;;;;4991240;28;20801;-77
2022/05/30 00:02:51;;;;;;;14.60;13.80;;;7.50;99.90;;;;;;4991406;28;20508;-76
2022/05/30 00:05:19;;;;;;;13.83;12.77;;;7.40;99.90;;;;;;4991617;28;20459;-78
2022/05/30 00:07:48;;;;;;;14.40;13.40;;;7.30;99.90;;;;;;4991359;28;20494;-76
2022/05/30 00:10:15;;;;;;;14.30;13.60;;;7.30;99.90;;;;;;4991398;28;20450;-77
2022/05/30 00:12:43;;;;;;;14.57;13.70;;;7.30;99.90;;;;;;4991001;28;20869;-77
2022/05/30 00:15:14;;;;;;;14.60;13.80;;;7.30;99.90;;;;;;4991852;28;20536;-77
2022/05/30 00:17:41;;;;;;;14.57;13.57;;;7.30;99.90;;;;;;4995350;28;20809;-77
2022/05/30 00:20:09;;;;;;;14.07;13.07;;;7.50;99.90;;;;;;4995169;28;20454;-77
2022/05/30 00:22:36;;;;;;;13.83;13.13;;;7.40;99.90;;;;;;4995102;28;20487;-78
2022/05/30 00:25:05;;;;;;;14.53;13.50;;;7.40;99.90;;;;;;4995275;28;20501;-77
2022/05/30 00:27:32;;;;;;;14.83;13.87;;;7.30;99.90;;;;;;4995318;28;20497;-78
2022/05/30 00:29:59;;;;;;;15.27;14.30;;;7.30;99.90;;;;;;4995392;28;21007;-78
2022/05/30 00:32:26;;;;;;;14.43;13.33;;;7.30;99.90;;;;;;4994937;28;20478;-78
2022/05/30 00:34:53;;;;;;;13.60;12.73;;;7.30;99.90;;;;;;4994650;28;20844;-78
2022/05/30 00:37:20;;;;;;;14.60;13.70;;;7.40;99.90;;;;;;4994991;28;20505;-78
2022/05/30 00:39:47;;;;;;;14.27;13.47;;;7.30;99.90;;;;;;4995079;28;20546;-77
2022/05/30 00:42:16;;;;;;;14.80;13.83;;;7.30;99.90;;;;;;4994820;28;20457;-79
2022/05/30 00:44:45;;;;;;;14.93;13.70;;;7.30;99.90;;;;;;4995094;28;20479;-77
2022/05/30 00:47:12;;;;;;;14.53;13.63;;;7.30;99.90;;;;;;4994550;28;20976;-75
2022/05/30 00:49:41;;;;;;;14.10;13.40;;;7.20;99.90;;;;;;4994673;28;20811;-76
2022/05/30 00:52:14;;;;;;;14.50;13.80;;;7.20;99.90;;;;;;4994607;28;20462;-75
2022/05/30 00:54:45;;;;;;;14.23;13.47;;;7.20;99.90;;;;;;4994727;28;20462;-76
2022/05/30 00:57:21;;;;;;;14.00;13.17;;;7.30;99.90;;;;;;4994478;28;20663;-76
2022/05/30 00:59:51;;;;;;;14.17;13.20;;;7.30;99.90;;;;;;4994433;28;20451;-76
2022/05/30 01:02:19;;;;;;;15.00;14.20;;;7.30;99.90;;;;;;4994482;28;20557;-76
2022/05/30 01:07:30;;;;;;;15.17;14.17;;;7.30;99.90;;;;;;4994474;28;20486;-76
2022/05/30 01:09:58;;;;;;;14.87;14.07;;;7.20;99.90;;;;;;4994518;28;20823;-76
2022/05/30 01:12:37;;;;;;;16.80;15.50;;;7.20;99.90;;;;;;4994539;28;20516;-76
2022/05/30 01:15:08;;;;;;;17.03;15.83;;;7.20;99.90;;;;;;4994255;28;20493;-75
2022/05/30 01:17:41;;;;;;;15.00;14.10;;;7.20;99.90;;;;;;4994246;28;20454;-76
2022/05/30 01:20:20;;;;;;;17.30;16.00;;;7.10;99.90;;;;;;4994331;28;20621;-77
2022/05/30 01:23:11;;;;;;;16.27;15.27;;;7.20;99.90;;;;;;4994355;28;20504;-76
2022/05/30 01:26:04;;;;;;;16.70;15.60;;;7.10;99.90;;;;;;4993749;28;20453;-75
2022/05/30 01:28:53;;;;;;;16.33;15.13;;;7.00;99.90;;;;;;4993006;28;20589;-75
2022/05/30 01:31:20;;;;;;;16.00;15.00;;;7.00;99.90;;;;;;4993887;28;20454;-75
2022/05/30 01:33:47;;;;;;;16.00;14.87;;;7.20;99.90;;;;;;4993731;28;20952;-75
2022/05/30 01:36:14;;;;;;;14.70;13.80;;;7.10;99.90;;;;;;4993882;28;20458;-76
2022/05/30 01:38:41;;;;;;;15.83;14.73;;;7.00;99.90;;;;;;4993912;28;20454;-75
2022/05/30 01:41:08;;;;;;;15.70;14.60;;;7.00;99.90;;;;;;4993472;28;20458;-75
2022/05/30 01:43:35;;;;;;;16.33;15.33;;;7.00;99.90;;;;;;4993809;28;20505;-76
2022/05/30 01:46:07;;;;;;;16.80;15.80;;;7.00;99.90;;;;;;4993641;28;21003;-76
2022/05/30 01:48:34;;;;;;;16.50;15.50;;;7.00;99.90;;;;;;4993917;28;20490;-77
2022/05/30 01:51:01;;;;;;;15.13;14.23;;;7.00;99.90;;;;;;4993911;28;20462;-76
2022/05/30 01:53:28;;;;;;;15.33;14.53;;;6.90;99.90;;;;;;4993775;28;20521;-76
2022/05/30 01:55:56;;;;;;;15.87;14.97;;;6.90;99.90;;;;;;4993431;28;20455;-75
2022/05/30 01:58:22;;;;;;;16.03;15.13;;;6.90;99.90;;;;;;4993569;28;20454;-75
2022/05/30 02:00:49;;;;;;;17.87;16.57;;;6.80;99.90;;;;;;4993597;28;20451;-75
2022/05/30 02:03:17;;;;;;;15.63;14.73;;;6.80;99.90;;;;;;4993718;28;20454;-76
2022/05/30 02:05:44;;;;;;;16.47;15.40;;;6.70;99.90;;;;;;4993345;28;20466;-77
2022/05/30 02:08:11;;;;;;;16.07;15.20;;;6.70;99.90;;;;;;4993239;28;20497;-77
2022/05/30 02:10:38;;;;;;;16.40;15.40;;;6.70;99.90;;;;;;4993125;28;20450;-77
2022/05/30 02:13:07;;;;;;;16.53;15.33;;;6.60;99.90;;;;;;4993311;28;20455;-77
2022/05/30 02:17:00;;;;;;;16.70;15.50;;;6.50;99.90;;;;;;4993301;28;20468;-77
2022/05/30 02:18:22;;;;;;;16.67;15.67;;;6.50;99.90;;;;;;4993020;28;20434;-76
2022/05/30 02:20:49;;;;;;;17.40;15.80;;;6.60;99.90;;;;;;4993238;28;20452;-76
2022/05/30 02:23:16;;;;;;;17.20;16.10;;;6.50;99.90;;;;;;4993037;28;20451;-76
2022/05/30 02:25:44;;;;;;;16.53;15.30;;;6.50;99.90;;;;;;4992933;28;20472;-76
2022/05/30 02:28:10;;;;;;;16.87;15.73;;;6.50;99.90;;;;;;4992767;28;20485;-76
2022/05/30 02:30:37;;;;;;;15.70;14.80;;;6.50;99.90;;;;;;4992615;28;20467;-77
2022/05/30 02:38:40;;;;;;;16.13;15.17;;;6.50;99.90;;;;;;4981616;28;20826;-76
2022/05/30 02:41:06;;;;;;;16.93;15.80;;;6.50;99.90;;;;;;4992663;28;20533;-76
2022/05/30 02:43:33;;;;;;;16.80;15.80;;;6.40;99.90;;;;;;4992692;28;20510;-76
2022/05/30 02:45:59;;;;;;;18.07;16.43;;;6.40;99.90;;;;;;4992218;28;20479;-75
2022/05/30 02:48:26;;;;;;;16.53;15.53;;;6.50;99.90;;;;;;4992469;28;20494;-76
2022/05/30 02:50:54;;;;;;;16.77;15.87;;;6.50;99.90;;;;;;4992426;28;20496;-75
2022/05/30 02:53:21;;;;;;;16.90;15.80;;;6.40;99.90;;;;;;4992324;28;20959;-74
2022/05/30 02:55:48;;;;;;;18.23;17.23;;;6.50;99.90;;;;;;4992354;28;20461;-75
2022/05/30 02:58:14;;;;;;;17.20;16.20;;;6.50;99.90;;;;;;4992406;28;20508;-75
2022/05/30 03:00:41;;;;;;;17.87;16.43;;;6.50;99.90;;;;;;4992174;28;20488;-75
2022/05/30 03:03:08;;;;;;;16.60;15.70;;;6.60;99.90;;;;;;4991996;28;20520;-75
2022/05/30 03:05:34;;;;;;;17.43;16.40;;;6.50;99.90;;;;;;4992238;28;20450;-75
2022/05/30 03:08:06;;;;;;;17.40;16.40;;;6.50;99.90;;;;;;4991965;28;20552;-75
2022/05/30 03:10:33;;;;;;;16.23;15.33;;;6.50;99.90;;;;;;4992219;28;20454;-75
2022/05/30 03:12:59;;;;;;;16.97;16.07;;;6.50;99.90;;;;;;4991275;28;20477;-76
2022/05/30 03:15:26;;;;;;;17.43;16.33;;;6.50;99.90;;;;;;4990856;28;20443;-76
2022/05/30 03:17:54;;;;;;;17.03;15.90;;;6.50;99.90;;;;;;4990564;28;20453;-76
2022/05/30 03:20:20;;;;;;;17.93;16.67;;;6.50;99.90;;;;;;4990872;28;20450;-75
2022/05/30 03:22:48;;;;;;;17.40;16.47;;;6.50;99.90;;;;;;4991834;28;20450;-75
2022/05/30 03:25:18;;;;;;;17.87;16.83;;;6.40;99.90;;;;;;4991883;28;20517;-75
2022/05/30 03:27:45;;;;;;;17.43;16.43;;;6.40;99.90;;;;;;4991719;28;20818;-74
2022/05/30 03:30:13;;;;;;;17.07;16.17;;;6.30;99.90;;;;;;4990304;28;20966;-76
2022/05/30 03:32:41;;;;;;;17.73;16.53;;;6.30;99.90;;;;;;4990583;28;20450;-75
2022/05/30 03:35:08;;;;;;;16.43;15.23;;;6.30;99.90;;;;;;4990751;28;20453;-73
2022/05/30 03:37:37;;;;;;;15.90;14.97;;;6.30;99.90;;;;;;4991027;28;20442;-73
2022/05/30 03:40:05;;;;;;;17.47;16.30;;;6.30;99.90;;;;;;4988623;28;20554;-73
2022/05/30 03:42:33;;;;;;;18.43;17.20;;;6.30;99.90;;;;;;4990312;28;20482;-73
2022/05/30 03:45:00;;;;;;;18.23;17.23;;;6.30;99.90;;;;;;4990275;28;20479;-72
2022/05/30 03:47:27;;;;;;;17.20;16.10;;;6.30;99.90;;;;;;4991291;28;20793;-72
2022/05/30 03:49:59;;;;;;;18.03;16.83;;;6.30;99.90;;;;;;4989602;28;20544;-73
2022/05/30 03:52:26;;;;;;;18.37;17.00;;;6.30;99.90;;;;;;4987791;28;20892;-72
2022/05/30 03:54:53;;;;;;;16.83;15.93;;;6.40;99.90;;;;;;4989812;28;20494;-73
2022/05/30 03:57:19;;;;;;;18.73;17.10;;;6.30;99.90;;;;;;4989884;28;20447;-73
2022/05/30 03:59:48;;;;;;;18.10;16.97;;;6.40;99.90;;;;;;4990085;28;20458;-73
2022/05/30 04:02:15;;;;;;;16.90;15.90;;;6.40;99.90;;;;;;4989997;28;20451;-73
2022/05/30 04:04:41;;;;;;;18.10;16.67;;;6.40;99.90;;;;;;4990016;28;20454;-73
2022/05/30 04:07:08;;;;;;;19.10;17.50;;;6.40;99.90;;;;;;4989758;28;20505;-73
2022/05/30 04:09:35;;;;;;;17.57;16.37;;;6.40;99.90;;;;;;4989893;28;20657;-73
2022/05/30 04:12:02;;;;;;;17.73;16.63;;;6.40;99.90;;;;;;4990432;28;20512;-73
2022/05/30 04:14:28;;;;;;;17.20;16.20;;;6.40;99.90;;;;;;4989844;28;20461;-71
2022/05/30 04:16:56;;;;;;;17.03;16.13;;;6.50;99.90;;;;;;4989920;28;20465;-72
2022/05/30 04:19:23;;;;;;;16.73;15.73;;;6.50;99.90;;;;;;4989651;28;20501;-72
2022/05/30 04:21:50;;;;;;;18.30;17.37;;;6.50;99.90;;;;;;4989524;28;20519;-72
2022/05/30 04:24:16;;;;;;;18.67;17.37;;;6.50;99.90;;;;;;4989756;28;20455;-72
2022/05/30 04:26:44;;;;;;;18.90;17.70;;;6.60;99.90;;;;;;4989655;28;20454;-72
2022/05/30 04:29:10;;;;;;;20.47;18.83;;;6.70;99.90;;;;;;4989581;28;20490;-72
2022/05/30 04:31:37;;;;;;;17.33;15.57;;;7.20;99.90;;;;;;4989373;28;20447;-72
2022/05/30 04:34:05;;;;;;;18.33;16.93;;;7.70;99.90;;;;;;4989558;28;20442;-72
2022/05/30 04:36:33;;;;;;;15.90;14.90;;;8.20;99.90;;;;;;4987053;28;20454;-72
2022/05/30 04:39:00;;;;;;;15.80;14.90;;;8.50;99.90;;;;;;4989676;28;20446;-72
2022/05/30 04:41:27;;;;;;;15.07;14.17;;;8.80;99.90;;;;;;4990058;28;20443;-72
2022/05/30 04:43:53;;;;;;;14.23;13.33;;;9.10;99.90;;;;;;4989806;28;20509;-71
2022/05/30 04:46:20;;;;;;;13.43;12.80;;;9.40;99.90;;;;;;4990500;28;20499;-73
2022/05/30 04:48:47;;;;;;;14.87;14.07;;;9.50;99.90;;;;;;4991060;28;20589;-73
2022/05/30 04:51:15;;;;;;;14.53;13.63;;;9.70;99.90;;;;;;4990744;28;21249;-73
2022/05/30 04:53:42;;;;;;;13.70;12.87;;;10.00;99.90;;;;;;4990876;28;20457;-73
2022/05/30 04:56:08;;;;;;;15.80;14.60;;;10.30;99.90;;;;;;4990853;28;20460;-74
2022/05/30 04:58:36;;;;;;;17.23;15.70;;;10.50;99.90;;;;;;4990536;28;20451;-73
2022/05/30 05:01:05;;;;;;;13.73;12.93;;;10.70;99.90;;;;;;4991285;28;20453;-73
2022/05/30 05:03:34;;;;;;;13.00;12.40;;;11.10;99.90;;;;;;4994579;28;20852;-73
2022/05/30 05:06:03;;;;;;;15.00;13.97;;;11.10;99.90;;;;;;4994758;28;20509;-73
2022/05/30 05:08:38;;;;;;;13.60;12.93;;;11.20;99.90;;;;;;4994156;28;20584;-73
2022/05/30 05:11:14;;;;;;;13.43;12.67;;;11.40;99.90;;;;;;4994071;28;20461;-73
2022/05/30 05:13:41;;;;;;;14.10;13.40;;;11.50;99.90;;;;;;4994284;28;20536;-73
2022/05/30 05:16:08;;;;;;;14.27;13.43;;;11.70;99.90;;;;;;4994068;28;20576;-72
2022/05/30 05:18:36;;;;;;;13.80;13.10;;;11.90;99.90;;;;;;4994156;28;20921;-73
2022/05/30 05:21:02;;;;;;;13.87;13.17;;;12.00;99.90;;;;;;4994391;28;20454;-73
2022/05/30 05:23:31;;;;;;;13.27;12.67;;;12.00;99.90;;;;;;4994160;28;20509;-73
2022/05/30 05:25:57;;;;;;;14.87;14.17;;;11.90;99.90;;;;;;4994177;28;20455;-74
2022/05/30 05:28:24;;;;;;;12.87;12.07;;;11.80;99.90;;;;;;4993910;28;20505;-80
2022/05/30 05:30:51;;;;;;;13.40;12.60;;;11.90;99.90;;;;;;4994226;28;20830;-79
2022/05/30 05:33:18;;;;;;;12.10;11.50;;;12.30;99.90;;;;;;4993502;28;20530;-84
2022/05/30 05:35:46;;;;;;;13.63;12.83;;;12.60;99.90;;;;;;4993036;28;20505;-82
2022/05/30 05:38:14;;;;;;;13.30;12.50;;;12.80;99.90;;;;;;4992861;28;20450;-81
2022/05/30 05:40:44;;;;;;;12.03;11.43;;;13.20;99.90;;;;;;4990080;28;20451;-79
2022/05/30 05:43:11;;;;;;;12.73;12.13;;;13.40;99.90;;;;;;4992320;28;20466;-76
2022/05/30 05:45:40;;;;;;;14.17;13.37;;;13.40;99.90;;;;;;4991840;28;21000;-76
2022/05/30 05:48:08;;;;;;;13.47;12.87;;;13.60;99.90;;;;;;4992562;28;20848;-79
2022/05/30 05:50:37;;;;;;;15.40;13.10;;;13.60;99.90;;;;;;4992563;28;20573;-78
2022/05/30 05:53:04;;;;;;;13.10;12.30;;;14.00;99.90;;;;;;4992709;28;20447;-78
2022/05/30 05:55:31;;;;;;;13.63;12.80;;;14.40;99.90;;;;;;4992413;28;20451;-77
2022/05/30 05:57:59;;;;;;;12.50;11.90;;;14.70;99.90;;;;;;4992189;28;20477;-77
2022/05/30 06:00:26;;;;;;;13.33;12.70;;;15.20;99.90;;;;;;4992682;28;20443;-76
2022/05/30 06:02:52;;;;;;;14.20;13.30;;;15.20;99.90;;;;;;4992152;28;20447;-77
2022/05/30 06:05:19;;;;;;;13.57;12.63;;;15.50;99.90;;;;;;4991941;28;20464;-79
2022/05/30 06:07:47;;;;;;;14.43;13.63;;;15.70;99.10;;;;;;4992116;28;20470;-74
2022/05/30 06:10:15;;;;;;;14.30;13.27;;;16.10;98.80;;;;;;4987484;28;20791;-76
2022/05/30 06:12:44;;;;;;;13.53;12.90;;;16.40;98.30;;;;;;4984399;28;20443;-76
2022/05/30 06:15:14;;;;;;;12.80;11.90;;;16.70;97.50;;;;;;4992079;28;20454;-74
2022/05/30 06:17:41;;;;;;;13.50;12.80;;;16.80;96.20;;;;;;4992124;28;20554;-75
2022/05/30 06:20:10;;;;;;;14.47;13.60;;;17.10;96.20;;;;;;4991651;28;20466;-76
2022/05/30 06:22:37;;;;;;;13.50;12.90;;;17.80;95.30;;;;;;4991940;28;20868;-74
2022/05/30 06:25:05;;;;;;;13.40;12.70;;;18.10;93.80;;;;;;4992015;28;20462;-75
2022/05/30 06:27:32;;;;;;;14.00;12.93;;;18.10;93.10;;;;;;4991888;28;20458;-75
2022/05/30 06:29:58;;;;;;;13.87;12.97;;;17.80;93.50;;;;;;4991453;28;20482;-74
2022/05/30 06:32:26;;;;;;;12.17;11.57;;;18.30;93.10;;;;;;4991443;28;20463;-75
2022/05/30 06:34:54;;;;;;;14.70;13.90;;;18.20;93.10;;;;;;4991660;28;20482;-75
2022/05/30 06:37:21;;;;;;;14.40;13.60;;;18.80;92.20;;;;;;4991732;28;20455;-74
2022/05/30 06:39:48;;;;;;;15.07;13.97;;;18.50;91.80;;;;;;4991770;28;20455;-75
2022/05/30 06:42:15;;;;;;;13.90;13.10;;;18.70;91.40;;;;;;4991577;28;20455;-74
2022/05/30 06:44:41;;;;;;;13.70;12.80;;;18.30;92.40;;;;;;4991490;28;21004;-75
2022/05/30 06:47:08;;;;;;;15.30;14.20;;;19.30;90.90;;;;;;4991342;28;20553;-74
2022/05/30 06:49:37;;;;;;;14.60;13.73;;;20.10;89.80;;;;;;4991520;28;20548;-75
2022/05/30 06:52:04;;;;;;;13.47;12.77;;;20.20;86.80;;;;;;4991661;28;20458;-74
2022/05/30 06:54:32;;;;;;;14.30;13.60;;;20.30;87.10;;;;;;4989903;28;20514;-75
2022/05/30 06:59:42;;;;;;;13.63;12.93;;;20.60;83.50;;;;;;4990397;28;20470;-76
2022/05/30 07:02:09;;;;;;;13.50;12.80;;;20.30;84.90;;;;;;4989995;28;20513;-74
2022/05/30 07:04:37;;;;;;;15.03;14.03;;;20.80;83.60;;;;;;4990306;28;20447;-75
2022/05/30 07:07:05;;;;;;;13.43;12.63;;;21.20;82.40;;;;;;4987585;28;20925;-74
2022/05/30 07:09:32;;;;;;;13.73;12.93;;;21.80;80.70;;;;;;4990019;28;20541;-74
2022/05/30 07:11:59;;;;;;;11.90;11.40;;;21.40;81.40;;;;;;4989981;28;20440;-76
2022/05/30 07:14:26;;;;;;;13.03;12.33;;;22.00;79.40;;;;;;4989850;28;20443;-76
2022/05/30 07:16:53;;;;;;;13.50;12.80;;;22.60;76.50;;;;;;4989885;28;20453;-75
2022/05/30 07:19:20;;;;;;;12.27;11.47;;;22.50;74.50;;;;;;4989644;28;20447;-75
2022/05/30 07:21:48;;;;;;;12.27;11.77;;;22.70;75.30;;;;;;4990093;28;20451;-75
2022/05/30 07:24:14;;;;;;;13.63;12.60;;;22.70;74.20;;;;;;4989850;28;20567;-74
2022/05/30 07:26:41;;;;;;;13.63;13.03;;;22.90;72.90;;;;;;4989552;28;20451;-74
2022/05/30 07:29:09;;;;;;;12.87;12.27;;;22.60;73.10;;;;;;4989554;28;20869;-74
2022/05/30 07:31:36;;;;;;;12.57;11.77;;;22.70;72.20;;;;;;4989628;28;20447;-76
2022/05/30 07:34:02;;;;;;;12.20;11.60;;;22.60;73.10;;;;;;4989892;28;20474;-74
2022/05/30 07:36:31;;;;;;;12.87;12.27;;;22.00;73.00;;;;;;4989629;28;20517;-74
2022/05/30 07:38:59;;;;;;;13.37;12.67;;;22.40;73.00;;;;;;4989589;28;20443;-74
2022/05/30 07:41:29;;;;;;;14.40;13.60;;;22.80;72.30;;;;;;4987162;28;20861;-74
2022/05/30 07:43:56;;;;;;;13.40;12.60;;;22.90;70.70;;;;;;4989685;28;20475;-74
2022/05/30 07:46:23;;;;;;;14.03;13.00;;;23.20;70.20;;;;;;4989239;28;20482;-74
2022/05/30 07:48:50;;;;;;;13.00;12.50;;;23.40;69.30;;;;;;4989553;28;20463;-74
2022/05/30 07:51:17;;;;;;;13.40;12.70;;;23.90;67.20;;;;;;4989542;28;20493;-74
2022/05/30 07:53:45;;;;;;;12.93;12.33;;;23.80;69.10;;;;;;4989408;28;20439;-75
2022/05/30 07:56:16;;;;;;;13.30;12.60;;;24.00;65.90;;;;;;4989151;28;20455;-75
2022/05/30 07:58:43;;;;;;;12.30;11.80;;;24.20;64.70;;;;;;4989029;28;20508;-74
2022/05/30 08:01:13;;;;;;;11.83;11.27;;;24.30;63.80;;;;;;4989139;28;20828;-74
2022/05/30 08:03:40;;;;;;;12.10;11.30;;;23.80;64.00;;;;;;4988954;28;20985;-75
2022/05/30 08:06:12;;;;;;;12.17;11.50;;;23.60;64.20;;;;;;4986670;28;20554;-75
2022/05/30 08:08:39;;;;;;;12.40;11.80;;;23.80;63.10;;;;;;4989164;28;20729;-74
2022/05/30 08:11:06;;;;;;;12.97;12.47;;;24.10;62.20;;;;;;4989112;28;21023;-74
2022/05/30 08:13:34;;;;;;;12.20;11.60;;;23.80;61.90;;;;;;4989090;28;20466;-74
2022/05/30 08:16:02;;;;;;;13.27;12.57;;;24.30;61.10;;;;;;4989145;28;20480;-75
2022/05/30 08:18:29;;;;;;;13.70;12.90;;;24.70;60.70;;;;;;4986500;28;20509;-74
2022/05/30 08:20:56;;;;;;;11.97;11.47;;;23.90;61.30;;;;;;4989361;28;20848;-74
2022/05/30 08:23:24;;;;;;;12.40;11.70;;;24.10;60.80;;;;;;4989350;28;20944;-74
2022/05/30 08:25:51;;;;;;;12.60;12.00;;;24.30;59.70;;;;;;4989204;28;20590;-74
2022/05/30 08:28:17;;;;;;;14.10;13.40;;;25.10;57.60;;;;;;4989521;28;20482;-75
2022/05/30 08:30:46;;;;;;;12.83;12.13;;;25.30;58.10;;;;;;4989295;28;20494;-74
2022/05/30 08:33:15;;;;;;;12.20;11.70;;;25.20;55.80;;;;;;4989281;28;20461;-75
2022/05/30 08:35:45;;;;;;;12.23;11.50;;;25.20;54.00;;;;;;4989190;28;20458;-75
2022/05/30 08:38:12;;;;;;;12.47;11.90;;;25.30;55.00;;;;;;4993048;28;20513;-75
2022/05/30 08:43:41;;;;;;;12.90;12.20;;;24.90;56.30;;;;;;4913784;29;20474;-75
2022/05/30 08:46:16;;;;;;;11.87;11.20;;;25.50;55.40;;;;;;4975588;28;20482;-74
2022/05/30 08:48:46;;;;;;;11.43;10.93;;;25.30;53.50;;;;;;4993125;28;20520;-75
2022/05/30 08:51:27;;;;;;;12.30;11.73;;;25.00;53.40;;;;;;4992899;28;20501;-75
2022/05/30 08:54:17;;;;;;;12.10;11.60;;;25.60;51.00;;;;;;4992858;28;20692;-74
2022/05/30 08:56:48;;;;;;;12.83;12.23;;;25.90;50.90;;;;;;4993110;28;20451;-74
2022/05/30 08:59:28;;;;;;;12.33;11.73;;;26.10;50.60;;;;;;4993221;28;20458;-74
2022/05/30 09:02:02;;;;;;;12.80;12.30;;;25.30;49.70;;;;;;4992997;28;20454;-75
2022/05/30 09:04:33;;;;;;;12.10;11.60;;;25.70;48.70;;;;;;4992568;28;20517;-76
2022/05/30 09:07:03;;;;;;;11.47;10.90;;;25.30;49.30;;;;;;4990100;28;21374;-76
2022/05/30 09:09:37;;;;;;;12.30;11.50;;;24.80;49.00;;;;;;4992372;28;20462;-76
2022/05/30 09:12:09;;;;;;;12.53;11.93;;;25.10;48.60;;;;;;4992899;28;20852;-76
2022/05/30 09:14:39;;;;;;;12.50;12.00;;;24.50;48.30;;;;;;4992781;28;20454;-76
2022/05/30 09:17:16;;;;;;;12.30;11.70;;;24.30;48.40;;;;;;4992575;28;20487;-75
2022/05/30 09:19:44;;;;;;;12.27;11.67;;;24.70;46.80;;;;;;4989558;28;20466;-76
2022/05/30 09:22:12;;;;;;;11.97;11.47;;;25.80;46.10;;;;;;4991994;28;20832;-76
2022/05/30 09:24:41;;;;;;;12.83;12.20;;;26.40;45.60;;;;;;4991734;28;20446;-75
2022/05/30 09:27:08;;;;;;;13.07;12.57;;;27.40;44.60;;;;;;4992001;28;20477;-77
2022/05/30 09:29:42;;;;;;;12.40;11.90;;;26.30;43.20;;;;;;4991659;28;20514;-76
2022/05/30 09:32:19;;;;;;;12.40;11.80;;;26.20;43.10;;;;;;4991779;28;20461;-75
2022/05/30 09:34:47;;;;;;;12.20;11.70;;;25.90;43.80;;;;;;4990104;28;20574;-75
2022/05/30 09:37:26;;;;;;;12.70;12.20;;;25.60;44.70;;;;;;4991836;28;20477;-77
2022/05/30 09:39:52;;;;;;;12.20;11.60;;;26.80;43.60;;;;;;4990538;28;20809;-77
2022/05/30 09:42:29;;;;;;;11.10;10.70;;;27.30;43.80;;;;;;4991642;28;20447;-76
2022/05/30 09:44:59;;;;;;;12.07;11.47;;;26.90;43.80;;;;;;4991348;28;20556;-75
2022/05/30 09:47:27;;;;;;;12.30;11.80;;;27.30;43.80;;;;;;4990744;28;20439;-77
2022/05/30 09:49:55;;;;;;;11.33;10.93;;;28.00;41.70;;;;;;4990596;28;20487;-77
2022/05/30 09:52:38;;;;;;;12.37;11.70;;;28.30;40.60;;;;;;4988830;28;20446;-76
2022/05/30 09:55:21;;;;;;;12.93;12.33;;;28.00;39.30;;;;;;4989482;28;20501;-76
2022/05/30 09:57:49;;;;;;;12.63;12.13;;;28.40;39.00;;;;;;4990129;28;20884;-77
2022/05/30 10:00:20;;;;;;;12.73;12.23;;;28.50;39.30;;;;;;4991466;28;20443;-77
2022/05/30 10:03:00;;;;;;;12.60;11.90;;;28.60;37.70;;;;;;4991569;28;20451;-77
2022/05/30 10:05:28;;;;;;;11.43;11.03;;;28.20;38.30;;;;;;4989012;28;20451;-78
2022/05/30 10:07:57;;;;;;;12.97;12.30;;;28.80;38.00;;;;;;4990758;28;20509;-78
2022/05/30 10:10:25;;;;;;;12.83;12.00;;;29.00;37.00;;;;;;4988562;28;20613;-78
2022/05/30 10:12:57;;;;;;;12.97;12.37;;;29.00;36.50;;;;;;4990837;28;20983;-78
2022/05/30 10:15:27;;;;;;;12.57;11.97;;;29.20;37.60;;;;;;4988410;28;20439;-78
2022/05/30 10:17:57;;;;;;;12.13;11.53;;;29.20;37.70;;;;;;4990730;28;20538;-78
2022/05/30 10:20:37;;;;;;;12.60;11.80;;;29.50;37.80;;;;;;4988315;28;20649;-79
2022/05/30 10:29:01;;;;;;;13.00;12.43;;;29.10;35.50;;;;;;4990405;28;20474;-78
2022/05/30 10:31:43;;;;;;;11.83;11.43;;;28.20;35.20;;;;;;4990689;28;20493;-75
2022/05/30 10:34:39;;;;;;;11.67;11.13;;;28.20;36.50;;;;;;4990072;28;20885;-81
2022/05/30 10:37:26;;;;;;;12.67;12.17;;;28.20;36.30;;;;;;4992409;28;20455;-78
2022/05/30 10:40:09;;;;;;;12.67;12.17;;;29.10;34.80;;;;;;4991069;28;20446;-75
2022/05/30 10:42:41;;;;;;;12.10;11.50;;;28.30;35.30;;;;;;4988846;28;20533;-75
2022/05/30 10:45:13;;;;;;;11.63;11.10;;;26.10;37.40;;;;;;4990692;28;20545;-77
2022/05/30 10:47:45;;;;;;;11.70;11.10;;;24.50;40.20;;;;;;4990589;28;20459;-77
2022/05/30 10:50:19;;;;;;;11.33;10.83;;;24.10;41.30;;;;;;4987751;28;21027;-77
2022/05/30 10:52:51;;;;;;;11.33;10.83;;;25.20;41.10;;;;;;4990838;28;20796;-76
2022/05/30 10:55:24;;;;;;;12.97;12.30;;;26.30;38.40;;;;;;4990906;28;20916;-75
2022/05/30 10:57:57;;;;;;;12.33;11.93;;;27.40;37.80;;;;;;4988589;28;20459;-78
2022/05/30 11:00:31;;;;;;;11.97;11.37;;;29.00;34.90;;;;;;4990447;28;20461;-78
2022/05/30 11:03:03;;;;;;;11.73;11.33;;;28.20;34.80;;;;;;4990934;28;20463;-77
2022/05/30 11:05:40;;;;;;;11.60;11.10;;;28.50;34.80;;;;;;4990881;28;20537;-77
2022/05/30 11:08:14;;;;;;;12.30;11.80;;;28.70;34.50;;;;;;4990731;28;20459;-76
2022/05/30 11:10:48;;;;;;;12.60;12.10;;;29.10;34.00;;;;;;4990448;28;20641;-77
2022/05/30 11:13:23;;;;;;;12.13;11.63;;;30.10;32.70;;;;;;4988695;28;20447;-77
2022/05/30 11:15:55;;;;;;;12.80;12.30;;;30.80;32.50;;;;;;4988096;28;20859;-77
2022/05/30 11:18:30;;;;;;;12.77;12.37;;;30.90;30.40;;;;;;4990672;28;20450;-78
2022/05/30 11:21:04;;;;;;;12.13;11.63;;;30.10;31.40;;;;;;4990478;28;20450;-77
2022/05/30 11:23:31;;;;;;;11.90;11.30;;;28.30;33.70;;;;;;4990756;28;20454;-76
2022/05/30 11:26:36;;;;;;;11.87;11.43;;;27.10;34.80;;;;;;4990413;28;20466;-76
2022/05/30 11:29:25;;;;;;;11.10;10.70;;;26.10;35.30;;;;;;4990637;28;20812;-75
2022/05/30 11:32:01;;;;;;;11.23;10.73;;;25.00;36.70;;;;;;4989705;28;21028;-75
2022/05/30 11:34:52;;;;;;;11.67;11.17;;;24.50;36.80;;;;;;4989648;28;20989;-76
2022/05/30 11:37:48;;;;;;;11.23;10.83;;;24.20;34.20;;;;;;4988868;28;20454;-76
2022/05/30 11:40:24;;;;;;;11.30;10.80;;;24.10;34.50;;;;;;4988040;28;20498;-76
2022/05/30 11:43:05;;;;;;;10.87;10.37;;;23.20;36.20;;;;;;4987672;28;20447;-75
2022/05/30 11:45:54;;;;;;;11.80;11.30;;;23.10;37.20;;;;;;4987647;28;20470;-76
2022/05/30 11:48:30;;;;;;;12.30;11.80;;;22.60;38.50;;;;;;4988812;28;20537;-76
2022/05/30 11:51:05;;;;;;;11.57;11.00;;;23.10;38.90;;;;;;4988157;28;20486;-74
2022/05/30 11:53:56;;;;;;;11.60;11.20;;;23.50;39.10;;;;;;4987664;28;20952;-74
2022/05/30 11:56:29;;;;;;;11.80;11.30;;;23.80;39.10;;;;;;4988903;28;20455;-76
2022/05/30 11:59:24;;;;;;;12.23;11.73;;;24.70;38.30;;;;;;4987883;28;20443;-76
2022/05/30 12:01:54;;;;;;;11.73;11.13;;;26.20;36.80;;;;;;4987159;28;20457;-76
2022/05/30 12:04:55;;;;;;;11.83;11.30;;;27.70;34.60;;;;;;4989508;28;20497;-77
2022/05/30 12:07:50;;;;;;;12.07;11.67;;;28.20;32.90;;;;;;4974150;28;20470;-77
2022/05/30 12:10:30;;;;;;;11.53;11.10;;;29.80;32.60;;;;;;4969976;28;20447;-76
2022/05/30 12:13:20;;;;;;;11.77;11.37;;;29.10;31.90;;;;;;4969652;28;20937;-75
2022/05/30 12:16:12;;;;;;;12.37;11.87;;;27.40;33.70;;;;;;4969859;28;20451;-76
2022/05/30 12:24:42;;;;;;;11.40;10.90;;;24.50;37.70;;;;;;4981224;28;20450;-76
2022/05/30 12:27:14;;;;;;;11.80;11.40;;;25.00;37.40;;;;;;4988922;28;20446;-76
2022/05/30 12:29:52;;;;;;;10.87;10.47;;;25.00;37.70;;;;;;4986581;28;20522;-78
2022/05/30 12:32:43;;;;;;;10.77;10.37;;;25.30;36.10;;;;;;4989511;28;20525;-74
2022/05/30 12:35:29;;;;;;;12.00;11.50;;;24.80;36.40;;;;;;4989298;28;20901;-76
2022/05/30 12:38:13;;;;;;;11.90;11.40;;;24.40;36.60;;;;;;4989094;28;20493;-76
2022/05/30 12:40:42;;;;;;;11.53;10.93;;;26.10;35.00;;;;;;4989419;28;20536;-76
2022/05/30 12:43:35;;;;;;;12.40;11.90;;;27.80;33.40;;;;;;4989502;28;20443;-77
2022/05/30 12:46:18;;;;;;;12.30;11.80;;;28.40;31.50;;;;;;4988970;28;20482;-76
2022/05/30 12:48:59;;;;;;;12.20;11.73;;;28.80;31.80;;;;;;4988497;28;20447;-75
2022/05/30 12:51:30;;;;;;;12.73;12.13;;;29.60;31.20;;;;;;4988643;28;20486;-76
2022/05/30 12:54:30;;;;;;;12.50;11.90;;;29.60;30.40;;;;;;4988640;28;20443;-76
2022/05/30 12:57:36;;;;;;;12.00;11.40;;;27.90;31.40;;;;;;4987275;28;20521;-76
2022/05/30 13:00:15;;;;;;;11.77;11.17;;;26.70;32.90;;;;;;4988281;28;20470;-75
2022/05/30 13:03:11;;;;;;;11.33;10.90;;;26.60;32.50;;;;;;4987841;28;20979;-76
2022/05/30 13:05:48;;;;;;;11.53;11.13;;;26.20;33.20;;;;;;4987493;28;20869;-76
2022/05/30 13:08:47;;;;;;;11.23;10.63;;;26.00;32.80;;;;;;4986992;28;20446;-76
2022/05/30 13:11:23;;;;;;;11.23;10.83;;;26.00;33.10;;;;;;4986555;28;20490;-76
2022/05/30 13:13:54;;;;;;;11.97;11.47;;;25.30;33.70;;;;;;4986320;28;20937;-77
2022/05/30 13:16:34;;;;;;;10.83;10.43;;;24.00;35.00;;;;;;4988683;28;20443;-75